sensor_id;sensor_type;location;lat;lon;timestamp;P1;durP1;ratioP1;P2;durP2;ratioP2
52368;SDS011;38298;50.346;3.526;2024-02-04T00:00:05;10.63;;;2.42;;
52368;SDS011;38298;50.346;3.526;2024-02-04T00:02:32;12.13;;;2.22;;
52368;SDS011;38298;50.346;3.526;2024-02-04T00:04:58;12.60;;;2.60;;
52368;SDS011;38298;50.346;3.526;2024-02-04T00:07:24;12.30;;;2.95;;
52368;SDS011;38298;50.346;3.526;2024-02-04T00:09:50;10.35;;;2.53;;
52368;SDS011;38298;50.346;3.526;2024-02-04T00:12:16;5.65;;;2.03;;
52368;SDS011;38298;50.346;3.526;2024-02-04T00:14:42;13.13;;;2.90;;
52368;SDS011;38298;50.346;3.526;2024-02-04T00:17:08;8.38;;;2.97;;
52368;SDS011;38298;50.346;3.526;2024-02-04T00:19:34;13.07;;;3.90;;
52368;SDS011;38298;50.346;3.526;2024-02-04T00:22:00;12.43;;;4.22;;
52368;SDS011;38298;50.346;3.526;2024-02-04T00:24:26;16.52;;;4.60;;
52368;SDS011;38298;50.346;3.526;2024-02-04T00:26:52;22.98;;;7.05;;
52368;SDS011;38298;50.346;3.526;2024-02-04T00:29:18;19.70;;;6.50;;
52368;SDS011;38298;50.346;3.526;2024-02-04T00:31:44;14.90;;;4.22;;
52368;SDS011;38298;50.346;3.526;2024-02-04T00:34:10;15.50;;;3.92;;
52368;SDS011;38298;50.346;3.526;2024-02-04T00:36:36;11.18;;;2.80;;
52368;SDS011;38298;50.346;3.526;2024-02-04T00:39:02;6.63;;;2.20;;
52368;SDS011;38298;50.346;3.526;2024-02-04T00:41:28;9.10;;;2.72;;
52368;SDS011;38298;50.346;3.526;2024-02-04T00:43:55;10.80;;;2.75;;
52368;SDS011;38298;50.346;3.526;2024-02-04T00:46:21;10.07;;;2.83;;
52368;SDS011;38298;50.346;3.526;2024-02-04T00:48:46;9.50;;;3.47;;
52368;SDS011;38298;50.346;3.526;2024-02-04T00:51:13;13.50;;;4.50;;
52368;SDS011;38298;50.346;3.526;2024-02-04T00:53:42;6.57;;;2.88;;
52368;SDS011;38298;50.346;3.526;2024-02-04T00:56:08;11.38;;;4.35;;
52368;SDS011;38298;50.346;3.526;2024-02-04T00:58:34;14.82;;;5.85;;
52368;SDS011;38298;50.346;3.526;2024-02-04T01:01:00;18.45;;;5.50;;
52368;SDS011;38298;50.346;3.526;2024-02-04T01:03:26;15.88;;;4.35;;
52368;SDS011;38298;50.346;3.526;2024-02-04T01:05:52;9.85;;;3.25;;
52368;SDS011;38298;50.346;3.526;2024-02-04T01:08:18;9.55;;;3.72;;
52368;SDS011;38298;50.346;3.526;2024-02-04T01:10:44;10.05;;;2.72;;
52368;SDS011;38298;50.346;3.526;2024-02-04T01:13:10;8.05;;;2.30;;
52368;SDS011;38298;50.346;3.526;2024-02-04T01:15:36;9.25;;;2.70;;
52368;SDS011;38298;50.346;3.526;2024-02-04T01:18:02;8.02;;;2.70;;
52368;SDS011;38298;50.346;3.526;2024-02-04T01:20:28;12.38;;;2.83;;
52368;SDS011;38298;50.346;3.526;2024-02-04T01:22:54;11.27;;;2.95;;
52368;SDS011;38298;50.346;3.526;2024-02-04T01:25:20;10.43;;;3.05;;
52368;SDS011;38298;50.346;3.526;2024-02-04T01:27:46;7.25;;;2.55;;
52368;SDS011;38298;50.346;3.526;2024-02-04T01:30:12;6.15;;;2.65;;
52368;SDS011;38298;50.346;3.526;2024-02-04T01:32:38;8.07;;;2.75;;
52368;SDS011;38298;50.346;3.526;2024-02-04T01:35:05;7.88;;;2.38;;
52368;SDS011;38298;50.346;3.526;2024-02-04T01:37:31;6.95;;;2.40;;
52368;SDS011;38298;50.346;3.526;2024-02-04T01:39:57;11.45;;;2.15;;
52368;SDS011;38298;50.346;3.526;2024-02-04T01:42:23;9.88;;;2.63;;
52368;SDS011;38298;50.346;3.526;2024-02-04T01:44:49;6.28;;;2.15;;
52368;SDS011;38298;50.346;3.526;2024-02-04T01:47:16;8.00;;;2.42;;
52368;SDS011;38298;50.346;3.526;2024-02-04T01:49:43;11.80;;;2.58;;
52368;SDS011;38298;50.346;3.526;2024-02-04T01:52:09;10.13;;;2.40;;
52368;SDS011;38298;50.346;3.526;2024-02-04T01:54:37;12.30;;;2.75;;
52368;SDS011;38298;50.346;3.526;2024-02-04T01:57:03;9.57;;;2.83;;
52368;SDS011;38298;50.346;3.526;2024-02-04T01:59:30;10.02;;;2.83;;
52368;SDS011;38298;50.346;3.526;2024-02-04T02:01:59;8.38;;;2.50;;
52368;SDS011;38298;50.346;3.526;2024-02-04T02:04:26;9.52;;;3.20;;
52368;SDS011;38298;50.346;3.526;2024-02-04T02:06:55;10.63;;;2.50;;
52368;SDS011;38298;50.346;3.526;2024-02-04T02:09:21;16.00;;;2.47;;
52368;SDS011;38298;50.346;3.526;2024-02-04T02:11:47;7.28;;;2.35;;
52368;SDS011;38298;50.346;3.526;2024-02-04T02:14:18;12.23;;;2.53;;
52368;SDS011;38298;50.346;3.526;2024-02-04T02:16:45;6.43;;;1.88;;
52368;SDS011;38298;50.346;3.526;2024-02-04T02:21:50;13.35;;;2.60;;
52368;SDS011;38298;50.346;3.526;2024-02-04T02:26:51;12.98;;;2.25;;
52368;SDS011;38298;50.346;3.526;2024-02-04T02:29:18;9.35;;;1.77;;
52368;SDS011;38298;50.346;3.526;2024-02-04T02:31:44;5.80;;;1.85;;
52368;SDS011;38298;50.346;3.526;2024-02-04T02:34:10;9.38;;;2.63;;
52368;SDS011;38298;50.346;3.526;2024-02-04T02:36:41;7.40;;;1.90;;
52368;SDS011;38298;50.346;3.526;2024-02-04T02:39:13;14.63;;;1.83;;
52368;SDS011;38298;50.346;3.526;2024-02-04T02:41:41;7.85;;;1.98;;
52368;SDS011;38298;50.346;3.526;2024-02-04T02:44:08;10.93;;;2.25;;
52368;SDS011;38298;50.346;3.526;2024-02-04T02:46:35;9.52;;;2.40;;
52368;SDS011;38298;50.346;3.526;2024-02-04T02:49:01;10.30;;;2.85;;
52368;SDS011;38298;50.346;3.526;2024-02-04T02:51:27;18.15;;;4.28;;
52368;SDS011;38298;50.346;3.526;2024-02-04T02:53:53;16.10;;;4.30;;
52368;SDS011;38298;50.346;3.526;2024-02-04T02:56:19;12.93;;;3.13;;
52368;SDS011;38298;50.346;3.526;2024-02-04T02:58:45;6.13;;;1.90;;
52368;SDS011;38298;50.346;3.526;2024-02-04T03:01:11;6.90;;;2.20;;
52368;SDS011;38298;50.346;3.526;2024-02-04T03:03:37;10.18;;;2.97;;
52368;SDS011;38298;50.346;3.526;2024-02-04T03:06:03;10.48;;;2.45;;
52368;SDS011;38298;50.346;3.526;2024-02-04T03:08:29;15.80;;;3.40;;
52368;SDS011;38298;50.346;3.526;2024-02-04T03:10:55;16.58;;;3.33;;
52368;SDS011;38298;50.346;3.526;2024-02-04T03:13:22;15.88;;;4.10;;
52368;SDS011;38298;50.346;3.526;2024-02-04T03:15:48;8.23;;;2.20;;
52368;SDS011;38298;50.346;3.526;2024-02-04T03:18:14;10.60;;;2.78;;
52368;SDS011;38298;50.346;3.526;2024-02-04T03:20:40;8.18;;;2.05;;
52368;SDS011;38298;50.346;3.526;2024-02-04T03:23:06;7.43;;;2.00;;
52368;SDS011;38298;50.346;3.526;2024-02-04T03:25:32;8.70;;;2.15;;
52368;SDS011;38298;50.346;3.526;2024-02-04T03:27:58;9.25;;;2.38;;
52368;SDS011;38298;50.346;3.526;2024-02-04T03:30:24;15.55;;;3.55;;
52368;SDS011;38298;50.346;3.526;2024-02-04T03:32:50;9.85;;;3.83;;
52368;SDS011;38298;50.346;3.526;2024-02-04T03:35:16;19.85;;;4.30;;
52368;SDS011;38298;50.346;3.526;2024-02-04T03:37:42;17.40;;;5.10;;
52368;SDS011;38298;50.346;3.526;2024-02-04T03:40:08;21.25;;;5.60;;
52368;SDS011;38298;50.346;3.526;2024-02-04T03:42:35;28.05;;;5.65;;
52368;SDS011;38298;50.346;3.526;2024-02-04T03:45:01;12.07;;;4.10;;
52368;SDS011;38298;50.346;3.526;2024-02-04T03:47:28;19.10;;;5.45;;
52368;SDS011;38298;50.346;3.526;2024-02-04T03:49:54;17.60;;;4.55;;
52368;SDS011;38298;50.346;3.526;2024-02-04T03:52:20;17.42;;;4.70;;
52368;SDS011;38298;50.346;3.526;2024-02-04T03:54:46;17.42;;;4.70;;
52368;SDS011;38298;50.346;3.526;2024-02-04T03:57:12;27.13;;;5.50;;
52368;SDS011;38298;50.346;3.526;2024-02-04T03:59:38;21.83;;;4.32;;
52368;SDS011;38298;50.346;3.526;2024-02-04T04:02:04;19.75;;;4.38;;
52368;SDS011;38298;50.346;3.526;2024-02-04T04:04:30;22.70;;;7.68;;
52368;SDS011;38298;50.346;3.526;2024-02-04T04:06:56;22.75;;;9.00;;
52368;SDS011;38298;50.346;3.526;2024-02-04T04:09:22;53.10;;;16.42;;
52368;SDS011;38298;50.346;3.526;2024-02-04T04:11:48;53.95;;;16.65;;
52368;SDS011;38298;50.346;3.526;2024-02-04T04:14:14;32.03;;;10.15;;
52368;SDS011;38298;50.346;3.526;2024-02-04T04:16:40;27.77;;;8.45;;
52368;SDS011;38298;50.346;3.526;2024-02-04T04:19:06;35.25;;;8.70;;
52368;SDS011;38298;50.346;3.526;2024-02-04T04:21:32;28.90;;;7.68;;
52368;SDS011;38298;50.346;3.526;2024-02-04T04:23:58;24.10;;;5.35;;
52368;SDS011;38298;50.346;3.526;2024-02-04T04:26:24;20.63;;;5.97;;
52368;SDS011;38298;50.346;3.526;2024-02-04T04:28:50;19.80;;;4.50;;
52368;SDS011;38298;50.346;3.526;2024-02-04T04:31:16;20.90;;;4.75;;
52368;SDS011;38298;50.346;3.526;2024-02-04T04:33:42;21.27;;;5.40;;
52368;SDS011;38298;50.346;3.526;2024-02-04T04:36:08;23.25;;;5.63;;
52368;SDS011;38298;50.346;3.526;2024-02-04T04:38:34;19.70;;;5.30;;
52368;SDS011;38298;50.346;3.526;2024-02-04T04:41:00;22.92;;;4.93;;
52368;SDS011;38298;50.346;3.526;2024-02-04T04:43:26;20.00;;;5.45;;
52368;SDS011;38298;50.346;3.526;2024-02-04T04:45:52;16.20;;;4.57;;
52368;SDS011;38298;50.346;3.526;2024-02-04T04:48:18;15.95;;;6.00;;
52368;SDS011;38298;50.346;3.526;2024-02-04T04:50:44;5.57;;;2.85;;
52368;SDS011;38298;50.346;3.526;2024-02-04T04:53:11;7.70;;;2.22;;
52368;SDS011;38298;50.346;3.526;2024-02-04T04:55:37;5.05;;;1.80;;
52368;SDS011;38298;50.346;3.526;2024-02-04T04:58:03;5.30;;;1.75;;
52368;SDS011;38298;50.346;3.526;2024-02-04T05:00:29;6.90;;;2.03;;
52368;SDS011;38298;50.346;3.526;2024-02-04T05:02:55;7.28;;;2.63;;
52368;SDS011;38298;50.346;3.526;2024-02-04T05:05:21;8.90;;;1.60;;
52368;SDS011;38298;50.346;3.526;2024-02-04T05:07:47;5.15;;;1.70;;
52368;SDS011;38298;50.346;3.526;2024-02-04T05:10:13;4.60;;;1.75;;
52368;SDS011;38298;50.346;3.526;2024-02-04T05:12:39;3.35;;;1.10;;
52368;SDS011;38298;50.346;3.526;2024-02-04T05:15:05;9.88;;;2.20;;
52368;SDS011;38298;50.346;3.526;2024-02-04T05:17:31;10.95;;;2.45;;
52368;SDS011;38298;50.346;3.526;2024-02-04T05:19:58;7.60;;;2.65;;
52368;SDS011;38298;50.346;3.526;2024-02-04T05:22:24;11.77;;;2.70;;
52368;SDS011;38298;50.346;3.526;2024-02-04T05:24:50;6.85;;;2.50;;
52368;SDS011;38298;50.346;3.526;2024-02-04T05:27:16;5.15;;;2.60;;
52368;SDS011;38298;50.346;3.526;2024-02-04T05:29:42;10.38;;;3.05;;
52368;SDS011;38298;50.346;3.526;2024-02-04T05:32:08;7.68;;;3.15;;
52368;SDS011;38298;50.346;3.526;2024-02-04T05:34:34;13.35;;;3.70;;
52368;SDS011;38298;50.346;3.526;2024-02-04T05:37:00;10.68;;;3.45;;
52368;SDS011;38298;50.346;3.526;2024-02-04T05:39:26;4.63;;;2.15;;
52368;SDS011;38298;50.346;3.526;2024-02-04T05:41:52;6.43;;;2.40;;
52368;SDS011;38298;50.346;3.526;2024-02-04T05:44:18;6.00;;;2.58;;
52368;SDS011;38298;50.346;3.526;2024-02-04T05:46:44;5.43;;;2.80;;
52368;SDS011;38298;50.346;3.526;2024-02-04T05:49:11;5.65;;;2.97;;
52368;SDS011;38298;50.346;3.526;2024-02-04T05:51:40;7.72;;;2.60;;
52368;SDS011;38298;50.346;3.526;2024-02-04T05:54:07;5.88;;;2.30;;
52368;SDS011;38298;50.346;3.526;2024-02-04T05:56:33;5.20;;;2.63;;
52368;SDS011;38298;50.346;3.526;2024-02-04T05:58:59;6.13;;;2.50;;
52368;SDS011;38298;50.346;3.526;2024-02-04T06:01:25;4.45;;;2.53;;
52368;SDS011;38298;50.346;3.526;2024-02-04T06:03:51;8.43;;;3.00;;
52368;SDS011;38298;50.346;3.526;2024-02-04T06:06:18;11.07;;;3.88;;
52368;SDS011;38298;50.346;3.526;2024-02-04T06:08:45;5.00;;;2.17;;
52368;SDS011;38298;50.346;3.526;2024-02-04T06:11:11;8.43;;;2.67;;
52368;SDS011;38298;50.346;3.526;2024-02-04T06:13:39;5.60;;;2.00;;
52368;SDS011;38298;50.346;3.526;2024-02-04T06:16:05;8.15;;;2.33;;
52368;SDS011;38298;50.346;3.526;2024-02-04T06:18:31;5.95;;;2.00;;
52368;SDS011;38298;50.346;3.526;2024-02-04T06:20:57;4.55;;;1.50;;
52368;SDS011;38298;50.346;3.526;2024-02-04T06:23:23;5.57;;;1.80;;
52368;SDS011;38298;50.346;3.526;2024-02-04T06:25:49;4.47;;;1.73;;
52368;SDS011;38298;50.346;3.526;2024-02-04T06:28:15;3.58;;;1.40;;
52368;SDS011;38298;50.346;3.526;2024-02-04T06:30:41;7.53;;;2.20;;
52368;SDS011;38298;50.346;3.526;2024-02-04T06:33:07;5.93;;;2.08;;
52368;SDS011;38298;50.346;3.526;2024-02-04T06:35:33;6.20;;;1.67;;
52368;SDS011;38298;50.346;3.526;2024-02-04T06:37:59;6.32;;;1.70;;
52368;SDS011;38298;50.346;3.526;2024-02-04T06:40:25;4.85;;;2.30;;
52368;SDS011;38298;50.346;3.526;2024-02-04T06:42:51;8.07;;;2.42;;
52368;SDS011;38298;50.346;3.526;2024-02-04T06:45:17;9.38;;;3.00;;
52368;SDS011;38298;50.346;3.526;2024-02-04T06:47:43;6.22;;;2.55;;
52368;SDS011;38298;50.346;3.526;2024-02-04T06:50:12;9.73;;;1.90;;
52368;SDS011;38298;50.346;3.526;2024-02-04T06:52:45;6.65;;;1.95;;
52368;SDS011;38298;50.346;3.526;2024-02-04T06:55:11;7.35;;;2.25;;
52368;SDS011;38298;50.346;3.526;2024-02-04T06:57:38;5.30;;;1.90;;
52368;SDS011;38298;50.346;3.526;2024-02-04T07:00:05;6.15;;;1.40;;
52368;SDS011;38298;50.346;3.526;2024-02-04T07:02:33;3.70;;;1.00;;
52368;SDS011;38298;50.346;3.526;2024-02-04T07:04:59;3.88;;;1.38;;
52368;SDS011;38298;50.346;3.526;2024-02-04T07:07:25;3.28;;;1.00;;
52368;SDS011;38298;50.346;3.526;2024-02-04T07:09:51;4.85;;;1.20;;
52368;SDS011;38298;50.346;3.526;2024-02-04T07:12:17;4.60;;;1.00;;
52368;SDS011;38298;50.346;3.526;2024-02-04T07:14:43;5.47;;;1.10;;
52368;SDS011;38298;50.346;3.526;2024-02-04T07:17:09;3.17;;;0.98;;
52368;SDS011;38298;50.346;3.526;2024-02-04T07:19:36;2.85;;;1.20;;
52368;SDS011;38298;50.346;3.526;2024-02-04T07:22:03;4.35;;;1.00;;
52368;SDS011;38298;50.346;3.526;2024-02-04T07:24:29;2.65;;;0.90;;
52368;SDS011;38298;50.346;3.526;2024-02-04T07:26:55;4.47;;;1.10;;
52368;SDS011;38298;50.346;3.526;2024-02-04T07:29:21;5.35;;;1.17;;
52368;SDS011;38298;50.346;3.526;2024-02-04T07:31:47;11.32;;;1.75;;
52368;SDS011;38298;50.346;3.526;2024-02-04T07:34:13;6.13;;;1.27;;
52368;SDS011;38298;50.346;3.526;2024-02-04T07:36:39;5.88;;;1.77;;
52368;SDS011;38298;50.346;3.526;2024-02-04T07:39:05;2.65;;;1.10;;
52368;SDS011;38298;50.346;3.526;2024-02-04T07:41:31;3.65;;;0.90;;
52368;SDS011;38298;50.346;3.526;2024-02-04T07:43:57;4.53;;;0.88;;
52368;SDS011;38298;50.346;3.526;2024-02-04T07:46:23;2.65;;;1.10;;
52368;SDS011;38298;50.346;3.526;2024-02-04T07:48:49;3.65;;;0.77;;
52368;SDS011;38298;50.346;3.526;2024-02-04T07:51:15;2.50;;;0.93;;
52368;SDS011;38298;50.346;3.526;2024-02-04T07:53:41;2.53;;;0.80;;
52368;SDS011;38298;50.346;3.526;2024-02-04T07:56:07;1.77;;;0.93;;
52368;SDS011;38298;50.346;3.526;2024-02-04T07:58:33;2.95;;;0.40;;
52368;SDS011;38298;50.346;3.526;2024-02-04T08:00:59;3.83;;;0.70;;
52368;SDS011;38298;50.346;3.526;2024-02-04T08:03:25;0.75;;;0.50;;
52368;SDS011;38298;50.346;3.526;2024-02-04T08:05:52;1.88;;;0.85;;
52368;SDS011;38298;50.346;3.526;2024-02-04T08:08:18;3.25;;;0.80;;
52368;SDS011;38298;50.346;3.526;2024-02-04T08:10:44;2.20;;;0.47;;
52368;SDS011;38298;50.346;3.526;2024-02-04T08:13:10;0.82;;;0.55;;
52368;SDS011;38298;50.346;3.526;2024-02-04T08:15:37;1.33;;;0.57;;
52368;SDS011;38298;50.346;3.526;2024-02-04T08:18:03;5.57;;;1.95;;
52368;SDS011;38298;50.346;3.526;2024-02-04T08:20:29;5.70;;;1.75;;
52368;SDS011;38298;50.346;3.526;2024-02-04T08:22:55;9.05;;;3.25;;
52368;SDS011;38298;50.346;3.526;2024-02-04T08:25:21;10.63;;;2.90;;
52368;SDS011;38298;50.346;3.526;2024-02-04T08:27:47;5.95;;;1.90;;
52368;SDS011;38298;50.346;3.526;2024-02-04T08:30:13;10.48;;;1.63;;
52368;SDS011;38298;50.346;3.526;2024-02-04T08:32:41;6.65;;;1.60;;
52368;SDS011;38298;50.346;3.526;2024-02-04T08:35:07;7.15;;;2.05;;
52368;SDS011;38298;50.346;3.526;2024-02-04T08:37:33;10.32;;;2.33;;
52368;SDS011;38298;50.346;3.526;2024-02-04T08:40:00;11.05;;;2.33;;
52368;SDS011;38298;50.346;3.526;2024-02-04T08:42:27;11.90;;;2.88;;
52368;SDS011;38298;50.346;3.526;2024-02-04T08:44:53;13.45;;;4.20;;
52368;SDS011;38298;50.346;3.526;2024-02-04T08:47:19;13.10;;;3.33;;
52368;SDS011;38298;50.346;3.526;2024-02-04T08:49:45;3.25;;;0.90;;
52368;SDS011;38298;50.346;3.526;2024-02-04T08:52:11;4.30;;;1.23;;
52368;SDS011;38298;50.346;3.526;2024-02-04T08:54:37;5.40;;;1.83;;
52368;SDS011;38298;50.346;3.526;2024-02-04T08:57:03;9.43;;;2.15;;
52368;SDS011;38298;50.346;3.526;2024-02-04T08:59:29;7.32;;;2.20;;
52368;SDS011;38298;50.346;3.526;2024-02-04T09:01:55;4.45;;;1.17;;
52368;SDS011;38298;50.346;3.526;2024-02-04T09:04:21;2.15;;;0.75;;
52368;SDS011;38298;50.346;3.526;2024-02-04T09:06:48;1.85;;;1.00;;
52368;SDS011;38298;50.346;3.526;2024-02-04T09:09:14;0.55;;;0.40;;
52368;SDS011;38298;50.346;3.526;2024-02-04T09:11:40;0.50;;;0.50;;
52368;SDS011;38298;50.346;3.526;2024-02-04T09:14:06;0.70;;;0.28;;
52368;SDS011;38298;50.346;3.526;2024-02-04T09:16:32;6.25;;;1.60;;
52368;SDS011;38298;50.346;3.526;2024-02-04T09:18:58;6.50;;;2.10;;
52368;SDS011;38298;50.346;3.526;2024-02-04T09:21:24;11.60;;;3.55;;
52368;SDS011;38298;50.346;3.526;2024-02-04T09:23:51;27.63;;;9.77;;
52368;SDS011;38298;50.346;3.526;2024-02-04T09:26:17;20.33;;;6.45;;
52368;SDS011;38298;50.346;3.526;2024-02-04T09:28:43;19.70;;;6.75;;
52368;SDS011;38298;50.346;3.526;2024-02-04T09:31:09;12.02;;;3.13;;
52368;SDS011;38298;50.346;3.526;2024-02-04T09:33:35;27.13;;;8.00;;
52368;SDS011;38298;50.346;3.526;2024-02-04T09:36:03;28.17;;;7.93;;
52368;SDS011;38298;50.346;3.526;2024-02-04T09:38:29;19.55;;;5.28;;
52368;SDS011;38298;50.346;3.526;2024-02-04T09:40:55;9.52;;;2.30;;
52368;SDS011;38298;50.346;3.526;2024-02-04T09:43:21;13.32;;;4.32;;
52368;SDS011;38298;50.346;3.526;2024-02-04T09:45:47;13.60;;;4.07;;
52368;SDS011;38298;50.346;3.526;2024-02-04T09:48:14;3.88;;;1.67;;
52368;SDS011;38298;50.346;3.526;2024-02-04T09:50:43;7.22;;;1.70;;
52368;SDS011;38298;50.346;3.526;2024-02-04T09:53:09;11.30;;;2.97;;
52368;SDS011;38298;50.346;3.526;2024-02-04T09:55:35;13.05;;;3.03;;
52368;SDS011;38298;50.346;3.526;2024-02-04T09:58:04;14.75;;;3.92;;
52368;SDS011;38298;50.346;3.526;2024-02-04T10:00:30;10.60;;;2.65;;
52368;SDS011;38298;50.346;3.526;2024-02-04T10:02:56;11.15;;;2.63;;
52368;SDS011;38298;50.346;3.526;2024-02-04T10:05:22;12.27;;;2.97;;
52368;SDS011;38298;50.346;3.526;2024-02-04T10:07:48;9.55;;;3.20;;
52368;SDS011;38298;50.346;3.526;2024-02-04T10:10:14;10.65;;;3.30;;
52368;SDS011;38298;50.346;3.526;2024-02-04T10:12:41;17.92;;;3.67;;
52368;SDS011;38298;50.346;3.526;2024-02-04T10:15:09;11.88;;;3.55;;
52368;SDS011;38298;50.346;3.526;2024-02-04T10:17:35;9.77;;;2.45;;
52368;SDS011;38298;50.346;3.526;2024-02-04T10:20:01;6.53;;;1.80;;
52368;SDS011;38298;50.346;3.526;2024-02-04T10:22:27;6.85;;;2.00;;
52368;SDS011;38298;50.346;3.526;2024-02-04T10:24:54;4.72;;;1.52;;
52368;SDS011;38298;50.346;3.526;2024-02-04T10:27:31;4.82;;;0.82;;
52368;SDS011;38298;50.346;3.526;2024-02-04T10:29:57;4.80;;;1.40;;
52368;SDS011;38298;50.346;3.526;2024-02-04T10:32:22;3.58;;;0.90;;
52368;SDS011;38298;50.346;3.526;2024-02-04T10:34:48;1.50;;;0.80;;
52368;SDS011;38298;50.346;3.526;2024-02-04T10:37:15;3.63;;;0.80;;
52368;SDS011;38298;50.346;3.526;2024-02-04T10:39:43;1.00;;;0.60;;
52368;SDS011;38298;50.346;3.526;2024-02-04T10:42:09;0.65;;;0.50;;
52368;SDS011;38298;50.346;3.526;2024-02-04T10:44:37;1.08;;;0.60;;
52368;SDS011;38298;50.346;3.526;2024-02-04T10:47:05;2.80;;;0.60;;
52368;SDS011;38298;50.346;3.526;2024-02-04T10:49:32;3.67;;;0.60;;
52368;SDS011;38298;50.346;3.526;2024-02-04T10:52:02;2.20;;;0.77;;
52368;SDS011;38298;50.346;3.526;2024-02-04T10:54:30;2.15;;;0.60;;
52368;SDS011;38298;50.346;3.526;2024-02-04T10:56:56;1.33;;;0.60;;
52368;SDS011;38298;50.346;3.526;2024-02-04T10:59:24;1.02;;;0.65;;
52368;SDS011;38298;50.346;3.526;2024-02-04T11:01:50;1.48;;;0.70;;
52368;SDS011;38298;50.346;3.526;2024-02-04T11:04:17;1.52;;;0.60;;
52368;SDS011;38298;50.346;3.526;2024-02-04T11:06:44;5.00;;;0.60;;
52368;SDS011;38298;50.346;3.526;2024-02-04T11:09:11;1.42;;;0.70;;
52368;SDS011;38298;50.346;3.526;2024-02-04T11:11:37;0.70;;;0.47;;
52368;SDS011;38298;50.346;3.526;2024-02-04T11:14:04;2.10;;;0.52;;
52368;SDS011;38298;50.346;3.526;2024-02-04T11:16:40;1.38;;;0.60;;
52368;SDS011;38298;50.346;3.526;2024-02-04T11:21:46;1.55;;;0.63;;
52368;SDS011;38298;50.346;3.526;2024-02-04T11:26:49;3.83;;;0.50;;
52368;SDS011;38298;50.346;3.526;2024-02-04T11:29:15;3.33;;;0.98;;
52368;SDS011;38298;50.346;3.526;2024-02-04T11:31:42;2.90;;;1.23;;
52368;SDS011;38298;50.346;3.526;2024-02-04T11:34:09;1.48;;;1.00;;
52368;SDS011;38298;50.346;3.526;2024-02-04T11:36:39;10.13;;;2.60;;
52368;SDS011;38298;50.346;3.526;2024-02-04T11:39:12;5.75;;;2.47;;
52368;SDS011;38298;50.346;3.526;2024-02-04T11:44:25;3.72;;;0.95;;
52368;SDS011;38298;50.346;3.526;2024-02-04T11:46:52;1.45;;;0.70;;
52368;SDS011;38298;50.346;3.526;2024-02-04T11:49:20;2.65;;;0.73;;
52368;SDS011;38298;50.346;3.526;2024-02-04T11:54:16;2.55;;;0.70;;
52368;SDS011;38298;50.346;3.526;2024-02-04T11:56:44;2.42;;;0.70;;
52368;SDS011;38298;50.346;3.526;2024-02-04T11:59:11;0.55;;;0.50;;
52368;SDS011;38298;50.346;3.526;2024-02-04T12:01:40;5.35;;;0.80;;
52368;SDS011;38298;50.346;3.526;2024-02-04T12:04:10;5.03;;;1.08;;
52368;SDS011;38298;50.346;3.526;2024-02-04T12:06:37;4.25;;;1.38;;
52368;SDS011;38298;50.346;3.526;2024-02-04T12:09:03;5.43;;;1.20;;
52368;SDS011;38298;50.346;3.526;2024-02-04T12:11:31;3.25;;;1.35;;
52368;SDS011;38298;50.346;3.526;2024-02-04T12:13:57;5.50;;;2.42;;
52368;SDS011;38298;50.346;3.526;2024-02-04T12:16:26;6.95;;;2.25;;
52368;SDS011;38298;50.346;3.526;2024-02-04T12:18:52;10.52;;;2.65;;
52368;SDS011;38298;50.346;3.526;2024-02-04T12:21:18;14.10;;;2.58;;
52368;SDS011;38298;50.346;3.526;2024-02-04T12:23:45;6.38;;;2.40;;
52368;SDS011;38298;50.346;3.526;2024-02-04T12:26:11;4.55;;;1.63;;
52368;SDS011;38298;50.346;3.526;2024-02-04T12:28:39;6.68;;;1.35;;
52368;SDS011;38298;50.346;3.526;2024-02-04T12:31:05;5.47;;;1.65;;
52368;SDS011;38298;50.346;3.526;2024-02-04T12:33:31;2.83;;;1.20;;
52368;SDS011;38298;50.346;3.526;2024-02-04T12:35:57;4.35;;;1.83;;
52368;SDS011;38298;50.346;3.526;2024-02-04T12:38:25;7.25;;;2.58;;
52368;SDS011;38298;50.346;3.526;2024-02-04T12:40:51;9.90;;;4.15;;
52368;SDS011;38298;50.346;3.526;2024-02-04T12:43:17;15.55;;;5.45;;
52368;SDS011;38298;50.346;3.526;2024-02-04T12:45:43;12.48;;;3.75;;
52368;SDS011;38298;50.346;3.526;2024-02-04T12:48:09;13.90;;;4.35;;
52368;SDS011;38298;50.346;3.526;2024-02-04T12:50:38;7.90;;;2.30;;
52368;SDS011;38298;50.346;3.526;2024-02-04T12:53:05;12.23;;;3.70;;
52368;SDS011;38298;50.346;3.526;2024-02-04T12:55:32;7.22;;;1.90;;
52368;SDS011;38298;50.346;3.526;2024-02-04T12:58:02;8.40;;;2.00;;
52368;SDS011;38298;50.346;3.526;2024-02-04T13:00:32;13.32;;;2.75;;
52368;SDS011;38298;50.346;3.526;2024-02-04T13:02:58;8.93;;;2.45;;
52368;SDS011;38298;50.346;3.526;2024-02-04T13:05:25;10.00;;;2.33;;
52368;SDS011;38298;50.346;3.526;2024-02-04T13:07:54;9.45;;;2.67;;
52368;SDS011;38298;50.346;3.526;2024-02-04T13:10:26;13.40;;;4.13;;
52368;SDS011;38298;50.346;3.526;2024-02-04T13:15:28;9.18;;;2.85;;
52368;SDS011;38298;50.346;3.526;2024-02-04T13:17:55;12.13;;;3.05;;
52368;SDS011;38298;50.346;3.526;2024-02-04T13:20:21;10.25;;;2.92;;
52368;SDS011;38298;50.346;3.526;2024-02-04T13:22:47;18.25;;;4.93;;
52368;SDS011;38298;50.346;3.526;2024-02-04T13:25:13;41.35;;;8.30;;
52368;SDS011;38298;50.346;3.526;2024-02-04T13:27:40;33.28;;;6.50;;
52368;SDS011;38298;50.346;3.526;2024-02-04T13:30:06;15.40;;;2.97;;
52368;SDS011;38298;50.346;3.526;2024-02-04T13:32:40;10.95;;;2.50;;
52368;SDS011;38298;50.346;3.526;2024-02-04T13:35:06;24.17;;;4.13;;
52368;SDS011;38298;50.346;3.526;2024-02-04T13:37:55;11.82;;;2.22;;
52368;SDS011;38298;50.346;3.526;2024-02-04T13:40:21;13.60;;;2.88;;
52368;SDS011;38298;50.346;3.526;2024-02-04T13:42:48;15.68;;;3.88;;
52368;SDS011;38298;50.346;3.526;2024-02-04T13:45:14;23.92;;;4.43;;
52368;SDS011;38298;50.346;3.526;2024-02-04T13:47:41;15.88;;;3.67;;
52368;SDS011;38298;50.346;3.526;2024-02-04T13:50:08;9.15;;;2.63;;
52368;SDS011;38298;50.346;3.526;2024-02-04T13:52:34;11.35;;;2.95;;
52368;SDS011;38298;50.346;3.526;2024-02-04T13:55:01;7.93;;;3.47;;
52368;SDS011;38298;50.346;3.526;2024-02-04T13:57:27;9.05;;;1.85;;
52368;SDS011;38298;50.346;3.526;2024-02-04T13:59:53;19.08;;;3.05;;
52368;SDS011;38298;50.346;3.526;2024-02-04T14:02:19;21.38;;;7.13;;
52368;SDS011;38298;50.346;3.526;2024-02-04T14:04:45;3.80;;;1.45;;
52368;SDS011;38298;50.346;3.526;2024-02-04T14:07:11;17.77;;;2.60;;
52368;SDS011;38298;50.346;3.526;2024-02-04T14:09:38;10.75;;;2.70;;
52368;SDS011;38298;50.346;3.526;2024-02-04T14:12:04;16.40;;;3.10;;
52368;SDS011;38298;50.346;3.526;2024-02-04T14:14:30;15.98;;;3.78;;
52368;SDS011;38298;50.346;3.526;2024-02-04T14:16:57;22.15;;;5.25;;
52368;SDS011;38298;50.346;3.526;2024-02-04T14:19:23;19.00;;;3.88;;
52368;SDS011;38298;50.346;3.526;2024-02-04T14:21:49;9.07;;;2.40;;
52368;SDS011;38298;50.346;3.526;2024-02-04T14:24:14;10.57;;;1.90;;
52368;SDS011;38298;50.346;3.526;2024-02-04T14:26:41;8.52;;;2.17;;
52368;SDS011;38298;50.346;3.526;2024-02-04T14:29:08;10.32;;;3.08;;
52368;SDS011;38298;50.346;3.526;2024-02-04T14:31:34;11.50;;;2.60;;
52368;SDS011;38298;50.346;3.526;2024-02-04T14:34:00;5.18;;;1.80;;
52368;SDS011;38298;50.346;3.526;2024-02-04T14:36:26;6.63;;;2.42;;
52368;SDS011;38298;50.346;3.526;2024-02-04T14:38:53;9.38;;;2.97;;
52368;SDS011;38298;50.346;3.526;2024-02-04T14:41:19;17.60;;;3.67;;
52368;SDS011;38298;50.346;3.526;2024-02-04T14:43:45;29.92;;;7.28;;
52368;SDS011;38298;50.346;3.526;2024-02-04T14:46:11;36.45;;;8.57;;
52368;SDS011;38298;50.346;3.526;2024-02-04T14:48:37;25.25;;;7.13;;
52368;SDS011;38298;50.346;3.526;2024-02-04T14:51:03;26.27;;;5.35;;
52368;SDS011;38298;50.346;3.526;2024-02-04T14:53:29;20.80;;;5.13;;
52368;SDS011;38298;50.346;3.526;2024-02-04T14:55:55;10.32;;;2.50;;